createdAt,value
2023-02-07T00:00:38.885Z,10.70
2023-02-07T00:03:41.098Z,10.93
2023-02-07T00:06:43.046Z,10.67
2023-02-07T00:09:45.492Z,11.37
2023-02-07T00:12:47.464Z,10.07
2023-02-07T00:15:51.401Z,11.67
2023-02-07T00:18:53.711Z,10.73
2023-02-07T00:21:55.644Z,10.27
2023-02-07T00:24:57.672Z,10.73
2023-02-07T00:27:59.656Z,10.73
2023-02-07T00:31:16.238Z,10.37
2023-02-07T00:34:18.198Z,9.77
2023-02-07T00:37:20.633Z,10.90
2023-02-07T00:40:23.764Z,8.97
2023-02-07T00:43:29.976Z,9.93
2023-02-07T00:46:32.091Z,9.17
2023-02-07T00:49:34.048Z,10.13
2023-02-07T00:52:35.970Z,9.03
2023-02-07T00:55:38.345Z,9.30
2023-02-07T00:58:40.390Z,8.73
2023-02-07T01:01:42.347Z,8.53
2023-02-07T01:04:44.226Z,9.57
2023-02-07T01:07:46.209Z,8.40
2023-02-07T01:10:48.151Z,9.03
2023-02-07T01:13:50.618Z,9.23
2023-02-07T01:16:52.579Z,8.57
2023-02-07T01:20:01.730Z,8.47
2023-02-07T01:23:05.142Z,8.77
2023-02-07T01:26:07.303Z,7.80
2023-02-07T01:29:14.722Z,8.47
2023-02-07T01:32:17.147Z,8.70
2023-02-07T01:35:19.503Z,8.43
2023-02-07T01:38:21.499Z,8.53
2023-02-07T01:41:25.032Z,7.87
2023-02-07T01:44:26.987Z,9.10
2023-02-07T01:47:29.596Z,8.30
2023-02-07T01:50:32.161Z,9.33
2023-02-07T01:53:35.897Z,8.70
2023-02-07T01:56:42.276Z,10.10
2023-02-07T01:59:44.728Z,8.63
2023-02-07T02:02:46.695Z,7.97
2023-02-07T02:05:50.450Z,6.83
2023-02-07T02:08:55.873Z,8.03
2023-02-07T02:12:21.539Z,8.73
2023-02-07T02:15:38.763Z,8.93
2023-02-07T02:18:58.427Z,8.00
2023-02-07T02:22:19.158Z,7.90
2023-02-07T02:25:42.311Z,8.73
2023-02-07T02:29:22.587Z,8.03
2023-02-07T02:32:43.390Z,9.53
2023-02-07T02:35:57.410Z,8.17
2023-02-07T02:39:07.755Z,8.87
2023-02-07T02:42:10.920Z,9.03
2023-02-07T02:45:17.155Z,8.63
2023-02-07T02:48:19.493Z,8.53
2023-02-07T02:51:22.010Z,8.13
2023-02-07T02:54:39.413Z,9.13
2023-02-07T02:57:52.520Z,8.70
2023-02-07T03:01:04.379Z,8.90
2023-02-07T03:04:06.208Z,8.33
2023-02-07T03:07:28.026Z,8.07
2023-02-07T03:10:37.312Z,8.70
2023-02-07T03:14:08.221Z,9.27
2023-02-07T03:17:18.860Z,8.70
2023-02-07T03:20:33.519Z,9.00
2023-02-07T03:23:36.938Z,8.70
2023-02-07T03:26:40.506Z,8.00
2023-02-07T03:29:46.496Z,8.83
2023-02-07T03:32:53.052Z,9.23
2023-02-07T03:36:08.459Z,9.37
2023-02-07T03:39:11.022Z,9.87
2023-02-07T03:42:40.727Z,10.93
2023-02-07T03:45:43.494Z,9.80
2023-02-07T03:48:45.364Z,10.97
2023-02-07T03:51:48.014Z,10.83
2023-02-07T03:54:49.886Z,10.57
2023-02-07T03:57:51.918Z,11.13
2023-02-07T04:00:53.840Z,10.10
2023-02-07T04:03:55.859Z,10.10
2023-02-07T04:06:57.773Z,8.97
2023-02-07T04:09:59.854Z,8.60
2023-02-07T04:13:01.704Z,8.10
2023-02-07T04:16:05.909Z,10.43
2023-02-07T04:19:08.960Z,10.67
2023-02-07T04:22:11.717Z,9.70
2023-02-07T04:25:13.620Z,9.87
2023-02-07T04:28:16.112Z,9.77
2023-02-07T04:31:18.030Z,10.33
2023-02-07T04:34:20.060Z,10.50
2023-02-07T04:37:22.064Z,11.20
2023-02-07T04:40:23.969Z,11.57
2023-02-07T04:43:25.804Z,12.07
2023-02-07T04:46:29.500Z,10.73
2023-02-07T04:49:34.181Z,10.67
2023-02-07T04:52:37.675Z,10.47
2023-02-07T04:55:39.834Z,10.00
2023-02-07T04:58:41.920Z,11.33
2023-02-07T05:01:43.899Z,10.30
2023-02-07T05:04:46.353Z,11.07
2023-02-07T05:07:48.381Z,11.20
2023-02-07T05:10:55.207Z,9.33
2023-02-07T05:13:57.149Z,10.03
2023-02-07T05:16:59.332Z,8.50
2023-02-07T05:20:04.958Z,10.87
2023-02-07T05:23:06.953Z,8.93
2023-02-07T05:26:08.829Z,9.57
2023-02-07T05:29:10.829Z,9.03
2023-02-07T05:32:34.802Z,10.03
2023-02-07T05:35:41.043Z,9.90
2023-02-07T05:38:43.264Z,11.30
2023-02-07T05:41:45.479Z,10.43
2023-02-07T05:44:48.112Z,10.77
2023-02-07T05:47:50.890Z,8.00
2023-02-07T05:50:52.793Z,8.00
2023-02-07T05:53:54.936Z,9.20
2023-02-07T05:56:56.834Z,7.67
2023-02-07T05:59:58.866Z,9.67
2023-02-07T06:03:00.862Z,7.67
2023-02-07T06:06:02.908Z,7.37
2023-02-07T06:09:05.274Z,8.00
2023-02-07T06:12:07.578Z,8.27
2023-02-07T06:15:09.874Z,8.90
2023-02-07T06:18:11.879Z,7.03
2023-02-07T06:21:13.816Z,8.70
2023-02-07T06:24:16.850Z,7.00
2023-02-07T06:27:18.754Z,6.80
2023-02-07T06:30:20.806Z,6.87
2023-02-07T06:33:22.772Z,7.13
2023-02-07T06:36:24.754Z,6.07
2023-02-07T06:39:26.654Z,5.83
2023-02-07T06:42:28.601Z,6.13
2023-02-07T06:45:30.801Z,6.03
2023-02-07T06:48:33.568Z,3.93
2023-02-07T06:51:35.429Z,6.30
2023-02-07T06:54:37.812Z,5.93
2023-02-07T06:57:39.740Z,6.07
2023-02-07T07:00:41.900Z,6.23
2023-02-07T07:03:43.807Z,5.53
2023-02-07T07:06:46.204Z,5.87
2023-02-07T07:09:48.125Z,5.97
2023-02-07T07:12:51.381Z,8.00
2023-02-07T07:15:53.393Z,7.97
2023-02-07T07:18:55.297Z,6.23
2023-02-07T07:21:57.396Z,4.93
2023-02-07T07:24:59.372Z,3.93
2023-02-07T07:28:01.926Z,5.77
2023-02-07T07:31:07.172Z,4.87
2023-02-07T07:34:09.663Z,5.27
2023-02-07T07:37:13.122Z,4.40
2023-02-07T07:40:15.112Z,5.57
2023-02-07T07:43:17.089Z,5.40
2023-02-07T07:46:19.062Z,5.57
2023-02-07T07:49:21.657Z,5.73
2023-02-07T07:52:23.601Z,6.20
2023-02-07T07:55:26.047Z,5.97
2023-02-07T07:58:29.178Z,5.10
2023-02-07T08:01:31.297Z,5.53
2023-02-07T08:04:33.495Z,5.63
2023-02-07T08:07:35.479Z,5.53
2023-02-07T08:10:37.788Z,5.23
2023-02-07T08:13:40.606Z,5.70
2023-02-07T08:16:42.968Z,4.67
2023-02-07T08:19:45.337Z,5.00
2023-02-07T08:22:47.328Z,5.87
2023-02-07T08:25:50.382Z,5.10
2023-02-07T08:28:52.721Z,5.23
2023-02-07T08:31:54.686Z,6.10
2023-02-07T08:34:56.683Z,6.50
2023-02-07T08:37:58.850Z,5.97
2023-02-07T08:41:00.943Z,5.93
2023-02-07T08:44:02.902Z,6.00
2023-02-07T08:47:05.242Z,6.20
2023-02-07T08:50:09.177Z,6.27
2023-02-07T08:53:11.365Z,5.87
2023-02-07T08:56:13.884Z,6.67
2023-02-07T08:59:15.868Z,6.77
2023-02-07T09:02:17.860Z,6.83
2023-02-07T09:05:19.824Z,6.83
2023-02-07T09:08:21.908Z,6.50
2023-02-07T09:11:24.300Z,6.03
2023-02-07T09:14:26.402Z,6.13
2023-02-07T09:17:28.328Z,6.03
2023-02-07T09:20:30.327Z,6.33
2023-02-07T09:23:36.785Z,7.20
2023-02-07T09:26:39.435Z,6.67
2023-02-07T09:29:42.838Z,6.80
2023-02-07T09:32:44.756Z,7.97
2023-02-07T09:35:47.549Z,7.67
2023-02-07T09:38:49.544Z,9.20
2023-02-07T09:41:57.350Z,9.20
2023-02-07T09:45:13.157Z,9.00
2023-02-07T09:48:20.819Z,9.03
2023-02-07T09:51:24.479Z,9.33
2023-02-07T09:54:36.455Z,8.63
2023-02-07T09:57:50.733Z,9.10
2023-02-07T10:01:01.725Z,8.90
2023-02-07T10:04:22.623Z,8.33
2023-02-07T10:07:24.620Z,8.10
2023-02-07T10:10:41.081Z,7.73
2023-02-07T10:14:06.051Z,8.57
2023-02-07T10:17:31.736Z,9.77
2023-02-07T10:20:41.703Z,8.33
2023-02-07T10:23:43.673Z,6.47
2023-02-07T10:26:51.143Z,7.63
2023-02-07T10:30:10.712Z,7.47
2023-02-07T10:33:19.056Z,7.13
2023-02-07T10:36:21.045Z,6.90
2023-02-07T10:39:25.944Z,6.87
2023-02-07T10:42:29.353Z,6.70
2023-02-07T10:45:31.861Z,7.30
2023-02-07T10:48:34.542Z,7.10
2023-02-07T10:51:40.451Z,6.27
2023-02-07T10:55:03.091Z,5.40
2023-02-07T10:58:21.200Z,6.20
2023-02-07T11:01:26.704Z,6.10
2023-02-07T11:04:34.930Z,6.13
2023-02-07T11:07:47.436Z,5.87
2023-02-07T11:10:52.382Z,5.77
2023-02-07T11:14:03.250Z,5.70
2023-02-07T11:17:05.304Z,5.43
2023-02-07T11:20:08.539Z,5.30
2023-02-07T11:23:15.470Z,5.07
2023-02-07T11:26:22.177Z,5.67
2023-02-07T11:29:26.009Z,5.10
2023-02-07T11:32:28.937Z,5.73
2023-02-07T11:35:31.007Z,5.00
2023-02-07T11:38:41.040Z,5.10
2023-02-07T11:41:43.046Z,4.60
2023-02-07T11:44:46.991Z,4.67
2023-02-07T11:47:49.895Z,4.93
2023-02-07T11:50:59.862Z,5.23
2023-02-07T11:54:06.122Z,4.67
2023-02-07T11:57:17.773Z,4.30
2023-02-07T12:00:26.590Z,4.43
2023-02-07T12:03:35.721Z,3.93
2023-02-07T12:06:48.466Z,4.57
2023-02-07T12:09:53.586Z,5.20
2023-02-07T12:13:06.954Z,5.40
2023-02-07T12:16:29.694Z,4.40
2023-02-07T12:19:36.207Z,5.00
2023-02-07T12:23:07.930Z,4.57
2023-02-07T12:26:21.139Z,5.67
2023-02-07T12:29:37.205Z,5.40
2023-02-07T12:32:42.216Z,5.70
2023-02-07T12:35:56.972Z,6.70
2023-02-07T12:39:27.685Z,6.20
2023-02-07T12:42:52.010Z,6.63
2023-02-07T12:46:03.573Z,7.60
2023-02-07T12:49:24.050Z,7.57
2023-02-07T12:52:44.950Z,7.97
2023-02-07T12:56:11.617Z,8.17
2023-02-07T12:59:51.316Z,7.67
2023-02-07T13:03:02.590Z,7.13
2023-02-07T13:06:32.238Z,8.13
2023-02-07T13:09:49.381Z,8.07
2023-02-07T13:13:15.076Z,8.20
2023-02-07T13:16:21.611Z,8.27
2023-02-07T13:19:45.076Z,7.17
2023-02-07T13:23:01.918Z,7.73
2023-02-07T13:26:11.003Z,7.53
2023-02-07T13:29:16.559Z,7.67
2023-02-07T13:32:36.278Z,8.33
2023-02-07T13:35:39.203Z,7.67
2023-02-07T13:38:47.427Z,7.90
2023-02-07T13:41:59.831Z,7.53
2023-02-07T13:45:20.690Z,7.60
2023-02-07T13:48:29.416Z,7.50
2023-02-07T13:51:57.979Z,7.50
2023-02-07T13:55:16.528Z,7.80
2023-02-07T13:59:12.298Z,7.90
2023-02-07T14:02:22.426Z,8.40
2023-02-07T14:05:28.221Z,8.00
2023-02-07T14:08:30.254Z,7.47
2023-02-07T14:11:39.356Z,7.37
2023-02-07T14:14:43.295Z,7.63
2023-02-07T14:18:03.207Z,7.33
2023-02-07T14:21:28.206Z,7.30
2023-02-07T14:24:31.976Z,7.43
2023-02-07T14:28:02.973Z,7.87
2023-02-07T14:31:19.976Z,7.90
2023-02-07T14:34:25.063Z,6.87
2023-02-07T14:37:55.931Z,7.53
2023-02-07T14:41:10.533Z,7.07
2023-02-07T14:44:48.714Z,6.90
2023-02-07T14:47:51.867Z,7.13
2023-02-07T14:50:56.604Z,7.13
2023-02-07T14:54:37.913Z,7.27
2023-02-07T14:57:54.808Z,7.90
2023-02-07T15:01:01.581Z,8.70
2023-02-07T15:04:08.996Z,7.87
2023-02-07T15:07:13.090Z,6.90
2023-02-07T15:10:23.807Z,7.03
2023-02-07T15:13:46.625Z,8.73
2023-02-07T15:16:49.517Z,7.90
2023-02-07T15:19:56.353Z,7.50
2023-02-07T15:23:00.284Z,6.20
2023-02-07T15:26:06.564Z,6.90
2023-02-07T15:29:21.206Z,7.07
2023-02-07T15:32:25.805Z,9.03
2023-02-07T15:35:30.679Z,7.27
2023-02-07T15:38:32.640Z,6.47
2023-02-07T15:41:35.271Z,8.40
2023-02-07T15:44:51.621Z,8.17
2023-02-07T15:47:59.222Z,6.60
2023-02-07T15:51:04.567Z,7.17
2023-02-07T15:54:06.982Z,7.53
2023-02-07T15:57:14.145Z,11.00
2023-02-07T16:00:19.825Z,9.87
2023-02-07T16:03:23.442Z,8.37
2023-02-07T16:06:28.205Z,9.83
2023-02-07T16:09:49.638Z,8.20
2023-02-07T16:13:05.378Z,8.33
2023-02-07T16:16:09.847Z,7.20
2023-02-07T16:19:15.108Z,7.30
2023-02-07T16:22:26.626Z,6.97
2023-02-07T16:25:33.988Z,6.40
2023-02-07T16:28:36.189Z,7.83
2023-02-07T16:31:38.281Z,6.90
2023-02-07T16:34:53.890Z,7.13
2023-02-07T16:37:59.888Z,6.83
2023-02-07T16:41:03.036Z,7.20
2023-02-07T16:44:13.687Z,6.97
2023-02-07T16:47:18.012Z,6.10
2023-02-07T16:50:25.442Z,6.73
2023-02-07T16:53:28.339Z,6.30
2023-02-07T16:56:30.598Z,6.77
2023-02-07T16:59:33.090Z,6.60
2023-02-07T17:02:35.090Z,6.90
2023-02-07T17:05:37.391Z,7.50
2023-02-07T17:08:39.412Z,6.67
2023-02-07T17:11:41.469Z,6.93
2023-02-07T17:14:43.378Z,7.97
2023-02-07T17:17:45.368Z,7.67
2023-02-07T17:20:47.776Z,7.53
2023-02-07T17:23:50.156Z,7.00
2023-02-07T17:26:54.052Z,6.63
2023-02-07T17:29:57.133Z,7.73
2023-02-07T17:32:59.154Z,7.17
2023-02-07T17:36:01.385Z,7.67
2023-02-07T17:39:03.560Z,7.30
2023-02-07T17:42:05.667Z,6.33
2023-02-07T17:45:08.902Z,7.40
2023-02-07T17:48:12.885Z,6.33
2023-02-07T17:51:20.400Z,7.53
2023-02-07T17:54:22.515Z,7.40
2023-02-07T17:57:24.463Z,7.77
2023-02-07T18:00:31.689Z,7.70
2023-02-07T18:03:33.661Z,7.67
2023-02-07T18:06:35.558Z,8.10
2023-02-07T18:09:37.508Z,9.00
2023-02-07T18:12:40.036Z,9.00
2023-02-07T18:15:42.065Z,8.83
2023-02-07T18:18:44.139Z,7.87
2023-02-07T18:21:47.487Z,8.50
2023-02-07T18:24:49.617Z,8.43
2023-02-07T18:27:52.061Z,8.90
2023-02-07T18:30:54.062Z,7.87
2023-02-07T18:33:56.076Z,9.27
2023-02-07T18:36:58.027Z,9.17
2023-02-07T18:40:00.318Z,9.53
2023-02-07T18:43:02.279Z,8.40
2023-02-07T18:46:08.945Z,8.33
2023-02-07T18:49:12.736Z,9.00
2023-02-07T18:52:16.751Z,8.03
2023-02-07T18:55:19.338Z,8.03
2023-02-07T18:58:21.361Z,8.20
2023-02-07T19:01:25.604Z,9.80
2023-02-07T19:04:27.790Z,9.27
2023-02-07T19:07:30.469Z,8.90
2023-02-07T19:10:32.338Z,7.93
2023-02-07T19:13:37.171Z,8.43
2023-02-07T19:16:39.331Z,8.33
2023-02-07T19:19:41.915Z,9.03
2023-02-07T19:22:45.080Z,8.67
2023-02-07T19:25:48.126Z,8.40
2023-02-07T19:28:52.832Z,8.23
2023-02-07T19:31:57.494Z,8.10
2023-02-07T19:34:59.420Z,8.80
2023-02-07T19:38:01.684Z,8.03
2023-02-07T19:41:04.454Z,8.00
2023-02-07T19:44:06.533Z,9.90
2023-02-07T19:47:08.516Z,9.33
2023-02-07T19:50:10.608Z,8.63
2023-02-07T19:53:13.969Z,8.43
2023-02-07T19:56:16.244Z,9.33
2023-02-07T19:59:19.090Z,10.30
2023-02-07T20:02:21.174Z,12.00
2023-02-07T20:05:23.814Z,9.70
2023-02-07T20:08:25.919Z,10.70
2023-02-07T20:11:28.431Z,10.17
2023-02-07T20:14:30.379Z,10.23
2023-02-07T20:17:32.393Z,10.63
2023-02-07T20:20:35.353Z,9.17
2023-02-07T20:23:39.281Z,10.00
2023-02-07T20:26:43.582Z,9.20
2023-02-07T20:29:45.536Z,9.33
2023-02-07T20:32:48.610Z,8.53
2023-02-07T20:35:51.442Z,8.80
2023-02-07T20:38:53.670Z,8.10
2023-02-07T20:41:55.748Z,7.40
2023-02-07T20:44:59.318Z,7.00
2023-02-07T20:48:01.292Z,7.43
2023-02-07T20:51:10.332Z,6.73
2023-02-07T20:54:13.251Z,7.27
2023-02-07T20:57:15.425Z,7.67
2023-02-07T21:00:17.571Z,6.33
2023-02-07T21:03:20.924Z,7.53
2023-02-07T21:06:24.320Z,6.63
2023-02-07T21:09:26.554Z,7.10
2023-02-07T21:12:28.979Z,6.90
2023-02-07T21:15:30.910Z,5.60
2023-02-07T21:18:34.242Z,5.27
2023-02-07T21:21:36.340Z,6.20
2023-02-07T21:24:38.109Z,5.87
2023-02-07T21:27:40.445Z,7.50
2023-02-07T21:30:44.112Z,5.80
2023-02-07T21:33:50.341Z,7.90
2023-02-07T21:36:52.828Z,7.73
2023-02-07T21:39:55.812Z,6.43
2023-02-07T21:42:58.306Z,7.20
2023-02-07T21:46:08.026Z,6.67
2023-02-07T21:49:14.938Z,6.97
2023-02-07T21:52:18.630Z,6.33
2023-02-07T21:55:22.109Z,6.73
2023-02-07T21:58:24.264Z,7.20
2023-02-07T22:01:27.380Z,6.83
2023-02-07T22:04:29.579Z,7.63
2023-02-07T22:07:31.540Z,7.17
2023-02-07T22:10:35.571Z,6.33
2023-02-07T22:13:39.592Z,7.13
2023-02-07T22:16:42.873Z,8.10
2023-02-07T22:19:45.333Z,6.80
2023-02-07T22:22:47.556Z,6.83
2023-02-07T22:25:52.406Z,7.10
2023-02-07T22:28:54.978Z,6.33
2023-02-07T22:31:58.363Z,5.77
2023-02-07T22:35:01.564Z,6.73
2023-02-07T22:38:03.866Z,6.83
2023-02-07T22:41:06.011Z,7.10
2023-02-07T22:44:08.451Z,6.93
2023-02-07T22:47:10.684Z,6.67
2023-02-07T22:50:12.833Z,6.33
2023-02-07T22:53:16.219Z,6.43
2023-02-07T22:56:18.368Z,5.67
2023-02-07T22:59:20.383Z,5.30
2023-02-07T23:02:22.924Z,6.40
2023-02-07T23:05:26.235Z,6.60
2023-02-07T23:08:28.228Z,6.83
2023-02-07T23:11:30.453Z,7.77
2023-02-07T23:14:32.468Z,6.20
2023-02-07T23:17:34.420Z,5.93
2023-02-07T23:20:36.294Z,4.77
2023-02-07T23:23:39.273Z,5.30
2023-02-07T23:26:41.710Z,7.20
2023-02-07T23:29:43.759Z,7.33
2023-02-07T23:32:45.625Z,6.63
2023-02-07T23:35:47.584Z,7.33
2023-02-07T23:38:50.127Z,7.10
2023-02-07T23:41:52.113Z,5.57
2023-02-07T23:44:54.269Z,6.40
2023-02-07T23:47:57.150Z,6.50
2023-02-07T23:50:59.544Z,6.57
2023-02-07T23:54:02.571Z,6.37
2023-02-07T23:57:04.648Z,5.67
